createdAt,value
2023-08-22T00:00:34.081Z,75.00
2023-08-22T00:03:02.084Z,75.20
2023-08-22T00:05:29.658Z,75.10
2023-08-22T00:07:57.100Z,75.50
2023-08-22T00:10:24.238Z,75.60
2023-08-22T00:12:51.501Z,76.20
2023-08-22T00:15:18.662Z,76.50
2023-08-22T00:17:46.333Z,76.30
2023-08-22T00:20:14.672Z,76.20
2023-08-22T00:22:42.332Z,76.00
2023-08-22T00:25:11.020Z,75.90
2023-08-22T00:27:39.552Z,76.30
2023-08-22T00:30:08.272Z,76.10
2023-08-22T00:32:35.857Z,75.90
2023-08-22T00:35:03.204Z,75.90
2023-08-22T00:37:30.490Z,76.30
2023-08-22T00:39:59.258Z,76.00
2023-08-22T00:42:26.777Z,75.80
2023-08-22T00:44:56.014Z,76.30
2023-08-22T00:47:24.122Z,76.20
2023-08-22T00:49:52.034Z,76.10
2023-08-22T00:52:19.395Z,75.90
2023-08-22T00:54:47.731Z,76.10
2023-08-22T00:57:15.436Z,76.40
2023-08-22T00:59:42.769Z,76.20
2023-08-22T01:02:12.944Z,76.20
2023-08-22T01:04:40.081Z,76.10
2023-08-22T01:07:27.246Z,76.20
2023-08-22T01:10:12.943Z,76.20
2023-08-22T01:13:00.364Z,76.30
2023-08-22T01:15:29.655Z,76.40
2023-08-22T01:17:59.689Z,76.60
2023-08-22T01:20:28.998Z,76.60
2023-08-22T01:22:56.925Z,76.70
2023-08-22T01:25:26.764Z,77.10
2023-08-22T01:28:31.480Z,76.60
2023-08-22T01:31:26.612Z,76.70
2023-08-22T01:34:09.065Z,76.60
2023-08-22T01:36:38.592Z,76.90
2023-08-22T01:39:08.780Z,77.00
2023-08-22T01:41:37.450Z,76.90
2023-08-22T01:44:04.855Z,77.10
2023-08-22T01:46:32.215Z,77.10
2023-08-22T01:49:00.187Z,77.00
2023-08-22T01:51:27.424Z,77.20
2023-08-22T01:53:54.539Z,77.00
2023-08-22T01:56:23.229Z,76.70
2023-08-22T01:58:50.505Z,76.60
2023-08-22T02:01:18.494Z,76.60
2023-08-22T02:03:47.470Z,76.70
2023-08-22T02:06:14.848Z,77.00
2023-08-22T02:08:42.145Z,76.80
2023-08-22T02:11:09.430Z,76.90
2023-08-22T02:13:36.609Z,76.70
2023-08-22T02:16:04.680Z,77.20
2023-08-22T02:18:31.900Z,77.00
2023-08-22T02:20:59.556Z,77.10
2023-08-22T02:23:28.063Z,76.90
2023-08-22T02:25:55.252Z,77.60
2023-08-22T02:28:22.454Z,77.50
2023-08-22T02:30:55.909Z,77.30
2023-08-22T02:33:23.779Z,77.20
2023-08-22T02:35:50.987Z,77.00
2023-08-22T02:38:18.124Z,77.40
2023-08-22T02:40:45.322Z,77.10
2023-08-22T02:43:12.466Z,77.10
2023-08-22T02:45:41.873Z,77.10
2023-08-22T02:48:09.104Z,77.60
2023-08-22T02:50:37.874Z,77.80
2023-08-22T02:53:05.720Z,77.50
2023-08-22T02:55:32.904Z,77.60
2023-08-22T02:58:00.028Z,77.20
2023-08-22T03:00:27.246Z,77.30
2023-08-22T03:02:54.796Z,77.60
2023-08-22T03:05:22.259Z,77.80
2023-08-22T03:07:49.570Z,78.10
2023-08-22T03:10:16.870Z,77.50
2023-08-22T03:12:44.728Z,77.50
2023-08-22T03:15:12.770Z,77.40
2023-08-22T03:17:42.402Z,77.90
2023-08-22T03:20:11.559Z,77.60
2023-08-22T03:22:38.737Z,77.60
2023-08-22T03:25:07.846Z,77.80
2023-08-22T03:27:36.593Z,78.00
2023-08-22T03:30:05.708Z,78.30
2023-08-22T03:32:36.165Z,78.00
2023-08-22T03:35:05.007Z,77.90
2023-08-22T03:37:33.734Z,77.80
2023-08-22T03:40:02.405Z,77.80
2023-08-22T03:42:29.857Z,78.00
2023-08-22T03:45:03.108Z,77.90
2023-08-22T03:47:31.605Z,77.80
2023-08-22T03:49:59.612Z,77.90
2023-08-22T03:52:29.721Z,77.90
2023-08-22T03:54:57.757Z,77.90
2023-08-22T03:57:25.301Z,77.90
2023-08-22T03:59:52.804Z,77.80
2023-08-22T04:02:20.605Z,77.80
2023-08-22T04:04:48.153Z,77.80
2023-08-22T04:07:15.578Z,77.90
2023-08-22T04:09:43.144Z,78.00
2023-08-22T04:12:10.479Z,78.10
2023-08-22T04:14:37.765Z,78.00
2023-08-22T04:17:05.101Z,78.00
2023-08-22T04:19:33.513Z,78.00
2023-08-22T04:22:00.921Z,78.00
2023-08-22T04:24:28.251Z,78.10
2023-08-22T04:26:55.958Z,78.00
2023-08-22T04:29:23.979Z,78.10
2023-08-22T04:31:51.619Z,78.10
2023-08-22T04:34:18.909Z,77.60
2023-08-22T04:36:54.499Z,77.50
2023-08-22T04:39:22.188Z,77.50
2023-08-22T04:41:53.503Z,77.40
2023-08-22T04:44:30.577Z,77.60
2023-08-22T04:46:58.356Z,77.70
2023-08-22T04:49:26.029Z,77.90
2023-08-22T04:51:53.914Z,77.90
2023-08-22T04:54:22.597Z,78.10
2023-08-22T04:56:50.028Z,78.50
2023-08-22T04:59:17.384Z,79.00
2023-08-22T05:01:46.380Z,78.90
2023-08-22T05:04:16.096Z,78.40
2023-08-22T05:06:43.666Z,78.30
2023-08-22T05:09:10.923Z,78.20
2023-08-22T05:11:40.901Z,78.40
2023-08-22T05:14:09.554Z,78.70
2023-08-22T05:16:37.179Z,79.10
2023-08-22T05:19:04.945Z,79.10
2023-08-22T05:21:32.555Z,79.20
2023-08-22T05:24:00.024Z,78.90
2023-08-22T05:26:27.319Z,78.80
2023-08-22T05:28:54.536Z,78.90
2023-08-22T05:31:25.516Z,79.10
2023-08-22T05:33:53.887Z,79.10
2023-08-22T05:36:21.105Z,79.00
2023-08-22T05:38:48.356Z,79.00
2023-08-22T05:41:16.142Z,79.10
2023-08-22T05:43:43.808Z,79.00
2023-08-22T05:46:11.054Z,79.20
2023-08-22T05:48:39.286Z,79.60
2023-08-22T05:51:07.170Z,79.40
2023-08-22T05:53:34.388Z,79.30
2023-08-22T05:56:01.680Z,79.10
2023-08-22T05:58:29.029Z,78.90
2023-08-22T06:00:56.262Z,79.20
2023-08-22T06:03:24.173Z,79.10
2023-08-22T06:05:51.507Z,78.70
2023-08-22T06:08:19.856Z,78.80
2023-08-22T06:10:47.552Z,78.90
2023-08-22T06:13:16.390Z,78.10
2023-08-22T06:15:44.586Z,77.70
2023-08-22T06:18:13.984Z,77.70
2023-08-22T06:20:42.217Z,77.40
2023-08-22T06:23:09.523Z,78.10
2023-08-22T06:25:38.552Z,78.50
2023-08-22T06:28:05.991Z,78.20
2023-08-22T06:30:34.439Z,78.00
2023-08-22T06:33:01.641Z,77.90
2023-08-22T06:35:29.474Z,78.40
2023-08-22T06:37:56.832Z,78.80
2023-08-22T06:40:26.089Z,79.40
2023-08-22T06:42:53.190Z,79.40
2023-08-22T06:45:30.108Z,79.00
2023-08-22T06:47:57.335Z,79.10
2023-08-22T06:50:24.507Z,78.30
2023-08-22T06:52:51.651Z,78.00
2023-08-22T06:55:18.781Z,77.20
2023-08-22T06:57:46.425Z,77.30
2023-08-22T07:00:15.373Z,77.20
2023-08-22T07:02:43.636Z,77.40
2023-08-22T07:05:12.266Z,77.40
2023-08-22T07:07:40.774Z,77.20
2023-08-22T07:10:10.550Z,76.30
2023-08-22T07:12:38.674Z,75.90
2023-08-22T07:15:07.065Z,76.00
2023-08-22T07:17:34.406Z,74.60
2023-08-22T07:20:01.813Z,74.80
2023-08-22T07:22:28.982Z,74.00
2023-08-22T07:24:56.222Z,72.90
2023-08-22T07:27:27.136Z,71.60
2023-08-22T07:29:54.376Z,69.40
2023-08-22T07:32:22.114Z,69.30
2023-08-22T07:34:49.704Z,67.30
2023-08-22T07:37:17.288Z,69.70
2023-08-22T07:39:44.674Z,66.20
2023-08-22T07:42:11.749Z,66.40
2023-08-22T07:44:38.962Z,66.00
2023-08-22T07:47:06.273Z,66.20
2023-08-22T07:49:33.444Z,67.20
2023-08-22T07:52:00.614Z,66.70
2023-08-22T07:54:27.897Z,67.20
2023-08-22T07:57:04.728Z,66.40
2023-08-22T07:59:32.927Z,67.10
2023-08-22T08:02:00.089Z,66.20
2023-08-22T08:04:27.630Z,66.10
2023-08-22T08:06:55.758Z,65.60
2023-08-22T08:09:34.470Z,66.30
2023-08-22T08:12:03.188Z,64.20
2023-08-22T08:14:30.349Z,64.90
2023-08-22T08:16:57.651Z,64.80
2023-08-22T08:19:27.368Z,64.60
2023-08-22T08:21:55.449Z,64.00
2023-08-22T08:24:22.845Z,64.10
2023-08-22T08:26:50.051Z,63.80
2023-08-22T08:29:19.419Z,64.50
2023-08-22T08:31:48.498Z,62.00
2023-08-22T08:34:15.852Z,62.00
2023-08-22T08:36:43.120Z,61.40
2023-08-22T08:39:10.228Z,61.00
2023-08-22T08:41:40.977Z,61.40
2023-08-22T08:44:10.236Z,60.60
2023-08-22T08:46:38.091Z,60.10
2023-08-22T08:49:06.882Z,59.90
2023-08-22T08:51:35.051Z,61.30
2023-08-22T08:54:02.777Z,61.10
2023-08-22T08:56:30.422Z,60.10
2023-08-22T08:59:00.465Z,59.10
2023-08-22T09:01:27.985Z,58.90
2023-08-22T09:03:55.127Z,58.90
2023-08-22T09:06:22.374Z,58.80
2023-08-22T09:09:08.456Z,59.20
2023-08-22T09:11:40.730Z,59.60
2023-08-22T09:14:11.639Z,59.60
2023-08-22T09:16:38.937Z,58.10
2023-08-22T09:19:08.436Z,58.70
2023-08-22T09:21:35.615Z,58.90
2023-08-22T09:24:25.776Z,59.20
2023-08-22T09:26:53.092Z,58.90
2023-08-22T09:29:32.134Z,60.30
2023-08-22T09:32:02.314Z,58.50
2023-08-22T09:34:31.864Z,58.60
2023-08-22T09:36:59.275Z,59.10
2023-08-22T09:39:26.871Z,58.20
2023-08-22T09:41:57.738Z,59.60
2023-08-22T09:44:27.070Z,58.80
2023-08-22T09:46:56.738Z,58.50
2023-08-22T09:49:24.722Z,58.10
2023-08-22T09:51:54.615Z,58.60
2023-08-22T09:54:23.877Z,59.50
2023-08-22T09:56:52.007Z,58.20
2023-08-22T09:59:21.309Z,59.00
2023-08-22T10:01:50.029Z,57.40
2023-08-22T10:04:19.793Z,57.70
2023-08-22T10:06:50.767Z,59.70
2023-08-22T10:09:19.111Z,59.60
2023-08-22T10:11:58.989Z,58.10
2023-08-22T10:14:58.097Z,58.10
2023-08-22T10:17:29.132Z,58.10
2023-08-22T10:20:06.777Z,57.90
2023-08-22T10:22:34.597Z,59.20
2023-08-22T10:25:07.434Z,57.00
2023-08-22T10:27:40.242Z,56.60
2023-08-22T10:30:20.022Z,57.60
2023-08-22T10:33:20.621Z,56.90
2023-08-22T10:36:17.774Z,55.80
2023-08-22T10:39:01.619Z,56.70
2023-08-22T10:41:55.618Z,55.30
2023-08-22T10:44:28.152Z,55.90
2023-08-22T10:47:04.316Z,56.70
2023-08-22T10:49:33.964Z,57.20
2023-08-22T10:52:37.596Z,57.80
2023-08-22T10:55:10.313Z,56.90
2023-08-22T10:57:47.935Z,57.00
2023-08-22T11:00:26.565Z,56.20
2023-08-22T11:03:00.759Z,55.40
2023-08-22T11:05:28.403Z,56.50
2023-08-22T11:07:55.648Z,58.40
2023-08-22T11:10:25.916Z,56.90
2023-08-22T11:12:56.945Z,57.30
2023-08-22T11:15:24.403Z,56.20
2023-08-22T11:17:52.159Z,56.40
2023-08-22T11:20:22.195Z,57.40
2023-08-22T11:22:50.540Z,56.50
2023-08-22T11:25:27.780Z,56.70
2023-08-22T11:27:56.500Z,57.90
2023-08-22T11:30:24.114Z,54.30
2023-08-22T11:32:51.499Z,55.40
2023-08-22T11:35:18.889Z,52.00
2023-08-22T11:37:46.124Z,52.20
2023-08-22T11:40:18.423Z,52.70
2023-08-22T11:42:49.160Z,52.60
2023-08-22T11:45:23.259Z,51.20
2023-08-22T11:47:54.083Z,51.00
2023-08-22T11:50:29.806Z,51.30
2023-08-22T11:53:14.166Z,52.50
2023-08-22T11:55:47.553Z,51.20
2023-08-22T11:58:17.982Z,51.60
2023-08-22T12:00:45.704Z,51.70
2023-08-22T12:03:13.974Z,52.70
2023-08-22T12:05:49.817Z,50.40
2023-08-22T12:08:21.920Z,49.10
2023-08-22T12:10:54.453Z,47.60
2023-08-22T12:13:28.554Z,46.80
2023-08-22T12:15:55.738Z,48.80
2023-08-22T12:18:31.022Z,50.70
2023-08-22T12:20:58.202Z,48.30
2023-08-22T12:23:25.343Z,50.70
2023-08-22T12:25:52.541Z,49.10
2023-08-22T12:28:19.708Z,49.60
2023-08-22T12:30:46.972Z,51.00
2023-08-22T12:33:14.281Z,51.40
2023-08-22T12:35:42.297Z,50.70
2023-08-22T12:38:09.968Z,50.60
2023-08-22T12:40:37.149Z,50.60
2023-08-22T12:43:04.656Z,51.90
2023-08-22T12:45:32.253Z,51.90
2023-08-22T12:47:59.448Z,52.20
2023-08-22T12:50:26.660Z,51.80
2023-08-22T12:52:53.893Z,51.20
2023-08-22T12:55:23.101Z,51.20
2023-08-22T12:57:50.677Z,51.70
2023-08-22T13:00:20.292Z,52.00
2023-08-22T13:02:47.754Z,53.60
2023-08-22T13:05:17.039Z,53.10
2023-08-22T13:07:45.437Z,52.80
2023-08-22T13:10:14.322Z,53.30
2023-08-22T13:12:41.928Z,54.50
2023-08-22T13:15:09.630Z,49.20
2023-08-22T13:17:36.903Z,49.40
2023-08-22T13:20:06.177Z,52.60
2023-08-22T13:22:33.576Z,50.30
2023-08-22T13:25:01.046Z,51.80
2023-08-22T13:27:28.454Z,51.70
2023-08-22T13:29:55.553Z,49.80
2023-08-22T13:32:22.753Z,47.20
2023-08-22T13:34:49.879Z,47.70
2023-08-22T13:37:17.148Z,50.30
2023-08-22T13:39:44.226Z,47.90
2023-08-22T13:42:11.438Z,46.80
2023-08-22T13:44:39.063Z,47.50
2023-08-22T13:47:06.445Z,47.90
2023-08-22T13:49:33.567Z,48.00
2023-08-22T13:52:00.794Z,47.80
2023-08-22T13:54:27.911Z,47.40
2023-08-22T13:56:55.128Z,48.10
2023-08-22T13:59:22.383Z,48.50
2023-08-22T14:01:49.865Z,50.50
2023-08-22T14:04:20.029Z,49.00
2023-08-22T14:06:49.212Z,47.10
2023-08-22T14:09:25.635Z,47.70
2023-08-22T14:11:54.070Z,47.20
2023-08-22T14:14:22.209Z,48.00
2023-08-22T14:16:50.523Z,48.60
2023-08-22T14:19:17.735Z,49.90
2023-08-22T14:21:48.399Z,47.30
2023-08-22T14:24:19.282Z,47.90
2023-08-22T14:26:46.536Z,47.90
2023-08-22T14:29:13.719Z,47.70
2023-08-22T14:31:41.039Z,48.30
2023-08-22T14:34:09.626Z,49.50
2023-08-22T14:36:36.823Z,48.20
2023-08-22T14:39:04.569Z,49.20
2023-08-22T14:41:32.324Z,46.80
2023-08-22T14:43:59.577Z,48.60
2023-08-22T14:46:26.870Z,48.40
2023-08-22T14:48:57.082Z,47.30
2023-08-22T14:51:24.363Z,46.50
2023-08-22T14:53:51.592Z,45.30
2023-08-22T14:56:18.853Z,46.60
2023-08-22T14:58:48.557Z,43.90
2023-08-22T15:01:18.860Z,42.90
2023-08-22T15:03:46.555Z,42.40
2023-08-22T15:06:13.824Z,41.30
2023-08-22T15:08:41.977Z,41.90
2023-08-22T15:11:09.464Z,40.40
2023-08-22T15:13:37.523Z,41.80
2023-08-22T15:16:05.002Z,44.30
2023-08-22T15:18:32.645Z,41.70
2023-08-22T15:21:03.082Z,42.40
2023-08-22T15:23:30.852Z,41.50
2023-08-22T15:25:59.013Z,42.70
2023-08-22T15:28:27.555Z,40.70
2023-08-22T15:30:58.979Z,39.30
2023-08-22T15:33:29.646Z,40.20
2023-08-22T15:36:00.969Z,40.40
2023-08-22T15:38:33.736Z,40.70
2023-08-22T15:41:02.955Z,41.00
2023-08-22T15:43:33.530Z,40.20
2023-08-22T15:46:01.434Z,40.40
2023-08-22T15:48:28.653Z,41.60
2023-08-22T15:50:58.958Z,40.50
2023-08-22T15:53:27.148Z,41.10
2023-08-22T15:55:54.592Z,40.80
2023-08-22T15:58:21.870Z,40.80
2023-08-22T16:00:49.069Z,41.00
2023-08-22T16:03:16.474Z,41.20
2023-08-22T16:05:43.815Z,39.80
2023-08-22T16:08:10.947Z,40.70
2023-08-22T16:10:38.063Z,41.80
2023-08-22T16:13:05.419Z,41.20
2023-08-22T16:15:32.509Z,40.50
2023-08-22T16:17:59.685Z,39.30
2023-08-22T16:20:27.219Z,40.60
2023-08-22T16:22:54.472Z,40.60
2023-08-22T16:25:21.578Z,40.20
2023-08-22T16:27:49.097Z,40.80
2023-08-22T16:30:17.071Z,39.40
2023-08-22T16:32:44.307Z,40.00
2023-08-22T16:35:11.452Z,40.70
2023-08-22T16:37:41.457Z,42.20
2023-08-22T16:40:15.116Z,43.80
2023-08-22T16:42:42.561Z,44.80
2023-08-22T16:45:10.595Z,44.80
2023-08-22T16:47:37.807Z,45.60
2023-08-22T16:50:08.134Z,46.80
2023-08-22T16:52:35.643Z,48.10
2023-08-22T16:55:04.844Z,48.70
2023-08-22T16:57:32.042Z,48.70
2023-08-22T16:59:59.185Z,48.40
2023-08-22T17:02:26.461Z,48.80
2023-08-22T17:04:53.667Z,48.90
2023-08-22T17:07:21.142Z,49.00
2023-08-22T17:09:48.334Z,49.20
2023-08-22T17:12:16.828Z,50.60
2023-08-22T17:14:44.122Z,52.10
2023-08-22T17:17:11.652Z,51.70
2023-08-22T17:19:38.803Z,50.30
2023-08-22T17:22:06.314Z,50.70
2023-08-22T17:24:33.552Z,51.10
2023-08-22T17:27:00.757Z,50.80
2023-08-22T17:29:29.641Z,52.10
2023-08-22T17:31:57.707Z,54.00
2023-08-22T17:34:24.862Z,51.60
2023-08-22T17:36:52.211Z,54.20
2023-08-22T17:39:19.517Z,55.50
2023-08-22T17:41:46.864Z,53.20
2023-08-22T17:44:14.057Z,55.60
2023-08-22T17:46:41.185Z,54.60
2023-08-22T17:49:08.358Z,56.50
2023-08-22T17:51:35.734Z,57.40
2023-08-22T17:54:03.403Z,55.50
2023-08-22T17:56:31.952Z,55.10
2023-08-22T17:59:03.379Z,55.60
2023-08-22T18:01:30.753Z,58.30
2023-08-22T18:03:58.038Z,59.90
2023-08-22T18:06:25.278Z,59.70
2023-08-22T18:08:52.447Z,58.70
2023-08-22T18:11:19.748Z,57.30
2023-08-22T18:13:46.888Z,57.80
2023-08-22T18:16:14.227Z,57.00
2023-08-22T18:18:42.214Z,57.90
2023-08-22T18:21:12.252Z,58.10
2023-08-22T18:23:41.632Z,60.90
2023-08-22T18:26:11.003Z,60.70
2023-08-22T18:28:39.443Z,61.30
2023-08-22T18:31:25.834Z,59.50
2023-08-22T18:33:57.190Z,61.30
2023-08-22T18:36:32.859Z,61.20
2023-08-22T18:39:00.147Z,62.10
2023-08-22T18:41:27.332Z,62.40
2023-08-22T18:43:54.478Z,63.00
2023-08-22T18:46:23.745Z,62.90
2023-08-22T18:48:51.082Z,63.20
2023-08-22T18:51:18.539Z,63.40
2023-08-22T18:53:45.801Z,64.00
2023-08-22T18:56:13.108Z,64.10
2023-08-22T18:58:41.254Z,64.30
2023-08-22T19:01:12.560Z,64.70
2023-08-22T19:03:39.866Z,65.00
2023-08-22T19:06:06.980Z,65.00
2023-08-22T19:08:34.136Z,65.50
2023-08-22T19:11:05.027Z,65.40
2023-08-22T19:13:32.656Z,65.30
2023-08-22T19:16:19.656Z,65.30
2023-08-22T19:18:46.784Z,65.90
2023-08-22T19:21:13.977Z,66.30
2023-08-22T19:23:41.129Z,66.60
2023-08-22T19:26:08.419Z,67.30
2023-08-22T19:28:36.410Z,66.90
2023-08-22T19:31:03.723Z,66.90
2023-08-22T19:33:31.929Z,67.30
2023-08-22T19:35:59.407Z,67.30
2023-08-22T19:38:26.674Z,67.50
2023-08-22T19:40:56.184Z,67.60
2023-08-22T19:43:23.470Z,67.80
2023-08-22T19:45:50.644Z,68.40
2023-08-22T19:48:18.029Z,68.70
2023-08-22T19:50:47.107Z,69.00
2023-08-22T19:53:14.759Z,69.00
2023-08-22T19:55:41.898Z,69.20
2023-08-22T19:58:09.173Z,69.00
2023-08-22T20:00:38.163Z,69.20
2023-08-22T20:03:05.813Z,69.30
2023-08-22T20:05:33.132Z,69.70
2023-08-22T20:08:00.684Z,70.20
2023-08-22T20:10:28.017Z,69.80
2023-08-22T20:12:55.353Z,70.00
2023-08-22T20:15:22.565Z,70.10
2023-08-22T20:18:22.079Z,70.30
2023-08-22T20:20:50.602Z,70.50
2023-08-22T20:23:18.367Z,70.90
2023-08-22T20:25:45.658Z,71.00
2023-08-22T20:28:12.785Z,71.10
2023-08-22T20:30:43.538Z,71.30
2023-08-22T20:33:12.027Z,71.20
2023-08-22T20:35:39.237Z,71.40
2023-08-22T20:38:06.857Z,71.50
2023-08-22T20:40:34.145Z,71.70
2023-08-22T20:43:01.304Z,71.90
2023-08-22T20:45:28.449Z,71.90
2023-08-22T20:47:55.694Z,72.10
2023-08-22T20:50:23.024Z,72.10
2023-08-22T20:52:50.406Z,72.00
2023-08-22T20:55:17.668Z,72.00
2023-08-22T20:57:45.637Z,72.30
2023-08-22T21:00:15.157Z,72.30
2023-08-22T21:02:42.715Z,72.30
2023-08-22T21:05:10.075Z,72.40
2023-08-22T21:07:37.283Z,72.40
2023-08-22T21:10:04.803Z,72.50
2023-08-22T21:12:35.845Z,72.40
2023-08-22T21:15:06.938Z,72.70
2023-08-22T21:17:34.395Z,72.30
2023-08-22T21:20:05.058Z,72.30
2023-08-22T21:22:38.120Z,72.30
2023-08-22T21:25:06.183Z,72.40
2023-08-22T21:27:33.387Z,72.50
2023-08-22T21:30:01.119Z,72.90
2023-08-22T21:32:28.445Z,73.20
2023-08-22T21:34:55.720Z,73.20
2023-08-22T21:37:24.402Z,73.20
2023-08-22T21:39:51.737Z,73.20
2023-08-22T21:42:18.921Z,73.30
2023-08-22T21:44:46.255Z,73.30
2023-08-22T21:47:13.492Z,73.40
2023-08-22T21:49:40.617Z,73.20
2023-08-22T21:52:07.778Z,73.50
2023-08-22T21:54:34.906Z,73.70
2023-08-22T21:57:02.616Z,73.60
2023-08-22T21:59:29.728Z,73.50
2023-08-22T22:01:56.956Z,73.60
2023-08-22T22:04:24.194Z,73.70
2023-08-22T22:06:51.299Z,73.60
2023-08-22T22:09:18.470Z,73.80
2023-08-22T22:11:45.678Z,73.60
2023-08-22T22:14:12.946Z,73.70
2023-08-22T22:16:45.235Z,73.80
2023-08-22T22:19:15.411Z,74.20
2023-08-22T22:21:42.757Z,74.40
2023-08-22T22:24:09.985Z,74.10
2023-08-22T22:26:37.171Z,74.20
2023-08-22T22:29:04.331Z,74.40
2023-08-22T22:31:31.524Z,74.60
2023-08-22T22:33:59.067Z,74.40
2023-08-22T22:36:26.288Z,74.70
2023-08-22T22:38:53.405Z,74.50
2023-08-22T22:41:20.508Z,74.50
2023-08-22T22:43:47.838Z,74.70
2023-08-22T22:46:15.100Z,74.60
2023-08-22T22:48:43.588Z,74.60
2023-08-22T22:51:11.032Z,74.50
2023-08-22T22:53:38.245Z,74.40
2023-08-22T22:56:05.520Z,74.50
2023-08-22T22:58:32.812Z,74.60
2023-08-22T23:01:05.291Z,74.70
2023-08-22T23:03:32.685Z,74.70
2023-08-22T23:06:10.596Z,74.60
2023-08-22T23:08:37.937Z,74.60
2023-08-22T23:11:06.512Z,74.70
2023-08-22T23:13:36.174Z,74.90
2023-08-22T23:16:03.253Z,75.00
2023-08-22T23:18:30.431Z,75.10
2023-08-22T23:20:57.673Z,75.00
2023-08-22T23:23:24.783Z,75.00
2023-08-22T23:25:52.641Z,75.10
2023-08-22T23:28:19.914Z,75.10
2023-08-22T23:30:47.127Z,75.40
2023-08-22T23:33:14.416Z,75.30
2023-08-22T23:35:41.586Z,75.30
2023-08-22T23:38:09.353Z,75.20
2023-08-22T23:40:36.482Z,75.20
2023-08-22T23:43:05.614Z,75.30
2023-08-22T23:45:32.799Z,75.40
2023-08-22T23:48:00.327Z,75.50
2023-08-22T23:50:27.493Z,75.60
2023-08-22T23:52:54.840Z,75.50
2023-08-22T23:55:22.108Z,75.50
2023-08-22T23:57:50.035Z,75.60
